sensor_id;sensor_type;location;lat;lon;timestamp;pressure;altitude;pressure_sealevel;temperature
18704;BMP180;9481;48.796;9.210;2022-07-06T00:00:49;97172.00;;;26.30
18704;BMP180;9481;48.796;9.210;2022-07-06T00:03:15;97173.00;;;26.30
18704;BMP180;9481;48.796;9.210;2022-07-06T00:05:41;97172.00;;;26.30
18704;BMP180;9481;48.796;9.210;2022-07-06T00:08:06;97170.00;;;26.30
18704;BMP180;9481;48.796;9.210;2022-07-06T00:10:32;97172.00;;;26.30
18704;BMP180;9481;48.796;9.210;2022-07-06T00:12:57;97178.00;;;26.20
18704;BMP180;9481;48.796;9.210;2022-07-06T00:15:23;97174.00;;;26.20
18704;BMP180;9481;48.796;9.210;2022-07-06T00:17:49;97174.00;;;26.20
18704;BMP180;9481;48.796;9.210;2022-07-06T00:20:15;97174.00;;;26.20
18704;BMP180;9481;48.796;9.210;2022-07-06T00:22:40;97167.00;;;26.20
18704;BMP180;9481;48.796;9.210;2022-07-06T00:25:07;97168.00;;;26.10
18704;BMP180;9481;48.796;9.210;2022-07-06T00:27:33;97165.00;;;26.10
18704;BMP180;9481;48.796;9.210;2022-07-06T00:29:59;97173.00;;;26.10
18704;BMP180;9481;48.796;9.210;2022-07-06T00:32:25;97173.00;;;26.10
18704;BMP180;9481;48.796;9.210;2022-07-06T00:34:52;97172.00;;;26.00
18704;BMP180;9481;48.796;9.210;2022-07-06T00:37:18;97172.00;;;26.00
18704;BMP180;9481;48.796;9.210;2022-07-06T00:39:44;97168.00;;;26.00
18704;BMP180;9481;48.796;9.210;2022-07-06T00:42:10;97172.00;;;26.00
18704;BMP180;9481;48.796;9.210;2022-07-06T00:44:35;97179.00;;;25.90
18704;BMP180;9481;48.796;9.210;2022-07-06T00:47:01;97171.00;;;25.90
18704;BMP180;9481;48.796;9.210;2022-07-06T00:49:27;97167.00;;;25.90
18704;BMP180;9481;48.796;9.210;2022-07-06T00:52:12;97175.00;;;25.80
18704;BMP180;9481;48.796;9.210;2022-07-06T00:54:39;97171.00;;;25.80
18704;BMP180;9481;48.796;9.210;2022-07-06T00:57:06;97168.00;;;25.80
18704;BMP180;9481;48.796;9.210;2022-07-06T00:59:32;97163.00;;;25.80
18704;BMP180;9481;48.796;9.210;2022-07-06T01:01:58;97163.00;;;25.80
18704;BMP180;9481;48.796;9.210;2022-07-06T01:04:24;97162.00;;;25.70
18704;BMP180;9481;48.796;9.210;2022-07-06T01:06:50;97166.00;;;25.70
18704;BMP180;9481;48.796;9.210;2022-07-06T01:09:16;97163.00;;;25.70
18704;BMP180;9481;48.796;9.210;2022-07-06T01:11:42;97167.00;;;25.70
18704;BMP180;9481;48.796;9.210;2022-07-06T01:14:08;97154.00;;;25.70
18704;BMP180;9481;48.796;9.210;2022-07-06T01:16:34;97166.00;;;25.70
18704;BMP180;9481;48.796;9.210;2022-07-06T01:19:00;97163.00;;;25.60
18704;BMP180;9481;48.796;9.210;2022-07-06T01:21:25;97157.00;;;25.60
18704;BMP180;9481;48.796;9.210;2022-07-06T01:23:51;97164.00;;;25.60
18704;BMP180;9481;48.796;9.210;2022-07-06T01:26:20;97161.00;;;25.50
18704;BMP180;9481;48.796;9.210;2022-07-06T01:28:49;97160.00;;;25.50
18704;BMP180;9481;48.796;9.210;2022-07-06T01:31:18;97163.00;;;25.50
18704;BMP180;9481;48.796;9.210;2022-07-06T01:33:44;97155.00;;;25.50
18704;BMP180;9481;48.796;9.210;2022-07-06T01:36:10;97153.00;;;25.40
18704;BMP180;9481;48.796;9.210;2022-07-06T01:38:54;97154.00;;;25.40
18704;BMP180;9481;48.796;9.210;2022-07-06T01:41:21;97158.00;;;25.40
18704;BMP180;9481;48.796;9.210;2022-07-06T01:43:47;97160.00;;;25.40
18704;BMP180;9481;48.796;9.210;2022-07-06T01:46:13;97159.00;;;25.40
18704;BMP180;9481;48.796;9.210;2022-07-06T01:48:40;97152.00;;;25.40
18704;BMP180;9481;48.796;9.210;2022-07-06T01:51:06;97150.00;;;25.40
18704;BMP180;9481;48.796;9.210;2022-07-06T01:53:32;97157.00;;;25.30
18704;BMP180;9481;48.796;9.210;2022-07-06T01:55:58;97154.00;;;25.30
18704;BMP180;9481;48.796;9.210;2022-07-06T01:58:24;97151.00;;;25.30
18704;BMP180;9481;48.796;9.210;2022-07-06T02:00:49;97157.00;;;25.30
18704;BMP180;9481;48.796;9.210;2022-07-06T02:03:15;97161.00;;;25.20
18704;BMP180;9481;48.796;9.210;2022-07-06T02:05:41;97166.00;;;25.20
18704;BMP180;9481;48.796;9.210;2022-07-06T02:08:06;97164.00;;;25.20
18704;BMP180;9481;48.796;9.210;2022-07-06T02:10:32;97169.00;;;25.10
18704;BMP180;9481;48.796;9.210;2022-07-06T02:12:58;97168.00;;;25.10
18704;BMP180;9481;48.796;9.210;2022-07-06T02:15:24;97159.00;;;25.10
18704;BMP180;9481;48.796;9.210;2022-07-06T02:17:49;97164.00;;;25.10
18704;BMP180;9481;48.796;9.210;2022-07-06T02:20:15;97166.00;;;25.00
18704;BMP180;9481;48.796;9.210;2022-07-06T02:22:41;97160.00;;;25.00
18704;BMP180;9481;48.796;9.210;2022-07-06T02:25:07;97165.00;;;24.90
18704;BMP180;9481;48.796;9.210;2022-07-06T02:27:33;97157.00;;;24.90
18704;BMP180;9481;48.796;9.210;2022-07-06T02:29:59;97165.00;;;24.90
18704;BMP180;9481;48.796;9.210;2022-07-06T02:32:25;97165.00;;;24.90
18704;BMP180;9481;48.796;9.210;2022-07-06T02:34:50;97166.00;;;24.90
18704;BMP180;9481;48.796;9.210;2022-07-06T02:37:18;97166.00;;;24.80
18704;BMP180;9481;48.796;9.210;2022-07-06T02:39:43;97171.00;;;24.80
18704;BMP180;9481;48.796;9.210;2022-07-06T02:42:09;97172.00;;;24.80
18704;BMP180;9481;48.796;9.210;2022-07-06T02:44:35;97180.00;;;24.70
18704;BMP180;9481;48.796;9.210;2022-07-06T02:47:01;97182.00;;;24.70
18704;BMP180;9481;48.796;9.210;2022-07-06T02:49:26;97177.00;;;24.70
18704;BMP180;9481;48.796;9.210;2022-07-06T02:51:52;97176.00;;;24.70
18704;BMP180;9481;48.796;9.210;2022-07-06T02:54:18;97181.00;;;24.70
18704;BMP180;9481;48.796;9.210;2022-07-06T02:56:44;97184.00;;;24.70
18704;BMP180;9481;48.796;9.210;2022-07-06T02:59:13;97181.00;;;24.60
18704;BMP180;9481;48.796;9.210;2022-07-06T03:01:42;97182.00;;;24.60
18704;BMP180;9481;48.796;9.210;2022-07-06T03:04:08;97182.00;;;24.60
18704;BMP180;9481;48.796;9.210;2022-07-06T03:06:33;97172.00;;;24.60
18704;BMP180;9481;48.796;9.210;2022-07-06T03:08:59;97181.00;;;24.60
18704;BMP180;9481;48.796;9.210;2022-07-06T03:11:26;97184.00;;;24.60
18704;BMP180;9481;48.796;9.210;2022-07-06T03:13:51;97194.00;;;24.50
18704;BMP180;9481;48.796;9.210;2022-07-06T03:16:17;97190.00;;;24.50
18704;BMP180;9481;48.796;9.210;2022-07-06T03:18:42;97197.00;;;24.50
18704;BMP180;9481;48.796;9.210;2022-07-06T03:21:08;97194.00;;;24.50
18704;BMP180;9481;48.796;9.210;2022-07-06T03:23:34;97196.00;;;24.40
18704;BMP180;9481;48.796;9.210;2022-07-06T03:26:00;97196.00;;;24.40
18704;BMP180;9481;48.796;9.210;2022-07-06T03:28:25;97194.00;;;24.40
18704;BMP180;9481;48.796;9.210;2022-07-06T03:30:51;97198.00;;;24.40
18704;BMP180;9481;48.796;9.210;2022-07-06T03:33:17;97196.00;;;24.40
18704;BMP180;9481;48.796;9.210;2022-07-06T03:35:42;97193.00;;;24.40
18704;BMP180;9481;48.796;9.210;2022-07-06T03:38:08;97199.00;;;24.40
18704;BMP180;9481;48.796;9.210;2022-07-06T03:40:34;97193.00;;;24.40
18704;BMP180;9481;48.796;9.210;2022-07-06T03:42:59;97201.00;;;24.40
18704;BMP180;9481;48.796;9.210;2022-07-06T03:45:25;97195.00;;;24.30
18704;BMP180;9481;48.796;9.210;2022-07-06T03:47:51;97195.00;;;24.30
18704;BMP180;9481;48.796;9.210;2022-07-06T03:50:17;97194.00;;;24.30
18704;BMP180;9481;48.796;9.210;2022-07-06T03:52:42;97197.00;;;24.30
18704;BMP180;9481;48.796;9.210;2022-07-06T03:55:11;97196.00;;;24.30
18704;BMP180;9481;48.796;9.210;2022-07-06T03:57:38;97204.00;;;24.30
18704;BMP180;9481;48.796;9.210;2022-07-06T04:00:08;97197.00;;;24.20
18704;BMP180;9481;48.796;9.210;2022-07-06T04:02:34;97195.00;;;24.20
18704;BMP180;9481;48.796;9.210;2022-07-06T04:04:59;97190.00;;;24.20
18704;BMP180;9481;48.796;9.210;2022-07-06T04:07:26;97201.00;;;24.20
18704;BMP180;9481;48.796;9.210;2022-07-06T04:09:51;97201.00;;;24.20
18704;BMP180;9481;48.796;9.210;2022-07-06T04:12:17;97206.00;;;24.10
18704;BMP180;9481;48.796;9.210;2022-07-06T04:14:43;97198.00;;;24.10
18704;BMP180;9481;48.796;9.210;2022-07-06T04:17:09;97202.00;;;24.10
18704;BMP180;9481;48.796;9.210;2022-07-06T04:20:08;97206.00;;;24.10
18704;BMP180;9481;48.796;9.210;2022-07-06T04:22:38;97209.00;;;24.00
18704;BMP180;9481;48.796;9.210;2022-07-06T04:25:05;97208.00;;;24.00
18704;BMP180;9481;48.796;9.210;2022-07-06T04:27:30;97207.00;;;24.00
18704;BMP180;9481;48.796;9.210;2022-07-06T04:29:56;97217.00;;;24.00
18704;BMP180;9481;48.796;9.210;2022-07-06T04:32:22;97208.00;;;24.00
18704;BMP180;9481;48.796;9.210;2022-07-06T04:34:47;97218.00;;;24.00
18704;BMP180;9481;48.796;9.210;2022-07-06T04:37:13;97214.00;;;24.00
18704;BMP180;9481;48.796;9.210;2022-07-06T04:39:38;97215.00;;;24.00
18704;BMP180;9481;48.796;9.210;2022-07-06T04:42:05;97216.00;;;23.90
18704;BMP180;9481;48.796;9.210;2022-07-06T04:44:30;97222.00;;;24.00
18704;BMP180;9481;48.796;9.210;2022-07-06T04:46:56;97223.00;;;24.00
18704;BMP180;9481;48.796;9.210;2022-07-06T04:49:22;97226.00;;;24.00
18704;BMP180;9481;48.796;9.210;2022-07-06T04:51:47;97224.00;;;24.00
18704;BMP180;9481;48.796;9.210;2022-07-06T04:54:13;97228.00;;;24.00
18704;BMP180;9481;48.796;9.210;2022-07-06T04:56:39;97226.00;;;24.00
18704;BMP180;9481;48.796;9.210;2022-07-06T04:59:04;97224.00;;;24.00
18704;BMP180;9481;48.796;9.210;2022-07-06T05:01:30;97231.00;;;23.90
18704;BMP180;9481;48.796;9.210;2022-07-06T05:03:56;97231.00;;;23.90
18704;BMP180;9481;48.796;9.210;2022-07-06T05:06:21;97231.00;;;23.90
18704;BMP180;9481;48.796;9.210;2022-07-06T05:08:47;97236.00;;;24.00
18704;BMP180;9481;48.796;9.210;2022-07-06T05:11:13;97234.00;;;24.00
18704;BMP180;9481;48.796;9.210;2022-07-06T05:13:38;97232.00;;;24.00
18704;BMP180;9481;48.796;9.210;2022-07-06T05:16:04;97240.00;;;24.00
18704;BMP180;9481;48.796;9.210;2022-07-06T05:18:30;97237.00;;;24.10
18704;BMP180;9481;48.796;9.210;2022-07-06T05:20:56;97240.00;;;24.10
18704;BMP180;9481;48.796;9.210;2022-07-06T05:23:21;97248.00;;;24.10
18704;BMP180;9481;48.796;9.210;2022-07-06T05:25:47;97245.00;;;24.10
18704;BMP180;9481;48.796;9.210;2022-07-06T05:28:13;97248.00;;;24.10
18704;BMP180;9481;48.796;9.210;2022-07-06T05:30:39;97249.00;;;24.20
18704;BMP180;9481;48.796;9.210;2022-07-06T05:33:04;97240.00;;;24.20
18704;BMP180;9481;48.796;9.210;2022-07-06T05:35:31;97244.00;;;24.20
18704;BMP180;9481;48.796;9.210;2022-07-06T05:37:56;97247.00;;;24.20
18704;BMP180;9481;48.796;9.210;2022-07-06T05:40:22;97249.00;;;24.30
18704;BMP180;9481;48.796;9.210;2022-07-06T05:42:48;97246.00;;;24.30
18704;BMP180;9481;48.796;9.210;2022-07-06T05:45:13;97254.00;;;24.30
18704;BMP180;9481;48.796;9.210;2022-07-06T05:47:39;97244.00;;;24.40
18704;BMP180;9481;48.796;9.210;2022-07-06T05:50:24;97245.00;;;24.40
18704;BMP180;9481;48.796;9.210;2022-07-06T05:53:03;97248.00;;;24.40
18704;BMP180;9481;48.796;9.210;2022-07-06T05:55:29;97256.00;;;24.50
18704;BMP180;9481;48.796;9.210;2022-07-06T05:57:55;97256.00;;;24.60
18704;BMP180;9481;48.796;9.210;2022-07-06T06:00:26;97247.00;;;24.60
18704;BMP180;9481;48.796;9.210;2022-07-06T06:02:53;97253.00;;;24.70
18704;BMP180;9481;48.796;9.210;2022-07-06T06:05:19;97257.00;;;24.70
18704;BMP180;9481;48.796;9.210;2022-07-06T06:07:45;97259.00;;;24.70
18704;BMP180;9481;48.796;9.210;2022-07-06T06:10:17;97254.00;;;24.80
18704;BMP180;9481;48.796;9.210;2022-07-06T06:12:44;97264.00;;;24.80
18704;BMP180;9481;48.796;9.210;2022-07-06T06:15:11;97256.00;;;24.90
18704;BMP180;9481;48.796;9.210;2022-07-06T06:17:38;97265.00;;;25.00
18704;BMP180;9481;48.796;9.210;2022-07-06T06:20:11;97265.00;;;25.00
18704;BMP180;9481;48.796;9.210;2022-07-06T06:22:52;97273.00;;;25.00
18704;BMP180;9481;48.796;9.210;2022-07-06T06:25:31;97277.00;;;25.10
18704;BMP180;9481;48.796;9.210;2022-07-06T06:27:57;97272.00;;;25.20
18704;BMP180;9481;48.796;9.210;2022-07-06T06:30:24;97280.00;;;25.20
18704;BMP180;9481;48.796;9.210;2022-07-06T06:32:50;97271.00;;;25.20
18704;BMP180;9481;48.796;9.210;2022-07-06T06:35:16;97274.00;;;25.30
18704;BMP180;9481;48.796;9.210;2022-07-06T06:37:41;97282.00;;;25.30
18704;BMP180;9481;48.796;9.210;2022-07-06T06:40:08;97279.00;;;25.40
18704;BMP180;9481;48.796;9.210;2022-07-06T06:42:37;97283.00;;;25.40
18704;BMP180;9481;48.796;9.210;2022-07-06T06:45:04;97289.00;;;25.40
18704;BMP180;9481;48.796;9.210;2022-07-06T06:47:30;97290.00;;;25.50
18704;BMP180;9481;48.796;9.210;2022-07-06T06:49:56;97284.00;;;25.50
18704;BMP180;9481;48.796;9.210;2022-07-06T06:52:21;97283.00;;;25.60
18704;BMP180;9481;48.796;9.210;2022-07-06T06:54:47;97287.00;;;25.70
18704;BMP180;9481;48.796;9.210;2022-07-06T06:57:13;97284.00;;;25.70
18704;BMP180;9481;48.796;9.210;2022-07-06T06:59:39;97276.00;;;25.70
18704;BMP180;9481;48.796;9.210;2022-07-06T07:02:04;97274.00;;;25.70
18704;BMP180;9481;48.796;9.210;2022-07-06T07:04:30;97281.00;;;25.80
18704;BMP180;9481;48.796;9.210;2022-07-06T07:06:56;97284.00;;;25.90
18704;BMP180;9481;48.796;9.210;2022-07-06T07:09:22;97285.00;;;26.00
18704;BMP180;9481;48.796;9.210;2022-07-06T07:11:48;97284.00;;;26.00
18704;BMP180;9481;48.796;9.210;2022-07-06T07:14:13;97283.00;;;26.10
18704;BMP180;9481;48.796;9.210;2022-07-06T07:16:39;97278.00;;;26.10
18704;BMP180;9481;48.796;9.210;2022-07-06T07:19:05;97285.00;;;26.20
18704;BMP180;9481;48.796;9.210;2022-07-06T07:21:30;97284.00;;;26.30
18704;BMP180;9481;48.796;9.210;2022-07-06T07:23:56;97271.00;;;26.30
18704;BMP180;9481;48.796;9.210;2022-07-06T07:26:22;97269.00;;;26.40
18704;BMP180;9481;48.796;9.210;2022-07-06T07:28:47;97264.00;;;26.40
18704;BMP180;9481;48.796;9.210;2022-07-06T07:31:13;97264.00;;;26.50
18704;BMP180;9481;48.796;9.210;2022-07-06T07:33:39;97266.00;;;26.50
18704;BMP180;9481;48.796;9.210;2022-07-06T07:36:05;97269.00;;;26.50
18704;BMP180;9481;48.796;9.210;2022-07-06T07:38:30;97270.00;;;26.60
18704;BMP180;9481;48.796;9.210;2022-07-06T07:40:56;97271.00;;;26.60
18704;BMP180;9481;48.796;9.210;2022-07-06T07:43:22;97271.00;;;26.70
18704;BMP180;9481;48.796;9.210;2022-07-06T07:45:48;97268.00;;;26.70
18704;BMP180;9481;48.796;9.210;2022-07-06T07:48:14;97263.00;;;26.80
18704;BMP180;9481;48.796;9.210;2022-07-06T07:50:41;97268.00;;;26.80
18704;BMP180;9481;48.796;9.210;2022-07-06T07:53:13;97272.00;;;26.80
18704;BMP180;9481;48.796;9.210;2022-07-06T07:55:39;97263.00;;;26.90
18704;BMP180;9481;48.796;9.210;2022-07-06T07:58:05;97266.00;;;26.90
18704;BMP180;9481;48.796;9.210;2022-07-06T08:00:31;97276.00;;;27.00
18704;BMP180;9481;48.796;9.210;2022-07-06T08:02:57;97266.00;;;27.00
18704;BMP180;9481;48.796;9.210;2022-07-06T08:05:23;97272.00;;;27.00
18704;BMP180;9481;48.796;9.210;2022-07-06T08:07:49;97275.00;;;27.00
18704;BMP180;9481;48.796;9.210;2022-07-06T08:10:14;97269.00;;;27.00
18704;BMP180;9481;48.796;9.210;2022-07-06T08:12:40;97276.00;;;27.10
18704;BMP180;9481;48.796;9.210;2022-07-06T08:15:07;97271.00;;;27.10
18704;BMP180;9481;48.796;9.210;2022-07-06T08:17:32;97276.00;;;27.20
18704;BMP180;9481;48.796;9.210;2022-07-06T08:19:58;97269.00;;;27.20
18704;BMP180;9481;48.796;9.210;2022-07-06T08:22:24;97273.00;;;27.30
18704;BMP180;9481;48.796;9.210;2022-07-06T08:24:50;97268.00;;;27.30
18704;BMP180;9481;48.796;9.210;2022-07-06T08:27:16;97276.00;;;27.40
18704;BMP180;9481;48.796;9.210;2022-07-06T08:29:42;97279.00;;;27.40
18704;BMP180;9481;48.796;9.210;2022-07-06T08:32:09;97272.00;;;27.50
18704;BMP180;9481;48.796;9.210;2022-07-06T08:34:34;97275.00;;;27.50
18704;BMP180;9481;48.796;9.210;2022-07-06T08:37:00;97279.00;;;27.60
18704;BMP180;9481;48.796;9.210;2022-07-06T08:39:26;97281.00;;;27.60
18704;BMP180;9481;48.796;9.210;2022-07-06T08:41:52;97272.00;;;27.60
18704;BMP180;9481;48.796;9.210;2022-07-06T08:44:20;97275.00;;;27.70
18704;BMP180;9481;48.796;9.210;2022-07-06T08:46:48;97270.00;;;27.70
18704;BMP180;9481;48.796;9.210;2022-07-06T08:49:17;97272.00;;;27.70
18704;BMP180;9481;48.796;9.210;2022-07-06T08:51:45;97274.00;;;27.80
18704;BMP180;9481;48.796;9.210;2022-07-06T08:54:11;97278.00;;;27.80
18704;BMP180;9481;48.796;9.210;2022-07-06T08:56:38;97278.00;;;27.90
18704;BMP180;9481;48.796;9.210;2022-07-06T08:59:04;97275.00;;;27.90
18704;BMP180;9481;48.796;9.210;2022-07-06T09:01:33;97281.00;;;28.00
18704;BMP180;9481;48.796;9.210;2022-07-06T09:04:02;97282.00;;;28.00
18704;BMP180;9481;48.796;9.210;2022-07-06T09:06:30;97275.00;;;28.10
18704;BMP180;9481;48.796;9.210;2022-07-06T09:08:57;97284.00;;;28.10
18704;BMP180;9481;48.796;9.210;2022-07-06T09:11:24;97287.00;;;28.20
18704;BMP180;9481;48.796;9.210;2022-07-06T09:13:53;97286.00;;;28.20
18704;BMP180;9481;48.796;9.210;2022-07-06T09:16:28;97287.00;;;28.20
18704;BMP180;9481;48.796;9.210;2022-07-06T09:18:54;97281.00;;;28.30
18704;BMP180;9481;48.796;9.210;2022-07-06T09:21:27;97285.00;;;28.30
18704;BMP180;9481;48.796;9.210;2022-07-06T09:24:01;97290.00;;;28.30
18704;BMP180;9481;48.796;9.210;2022-07-06T09:26:30;97292.00;;;28.40
18704;BMP180;9481;48.796;9.210;2022-07-06T09:28:57;97286.00;;;28.40
18704;BMP180;9481;48.796;9.210;2022-07-06T09:31:25;97290.00;;;28.50
18704;BMP180;9481;48.796;9.210;2022-07-06T09:34:00;97293.00;;;28.50
18704;BMP180;9481;48.796;9.210;2022-07-06T09:36:47;97287.00;;;28.50
18704;BMP180;9481;48.796;9.210;2022-07-06T09:39:20;97300.00;;;28.60
18704;BMP180;9481;48.796;9.210;2022-07-06T09:42:07;97306.00;;;28.60
18704;BMP180;9481;48.796;9.210;2022-07-06T09:44:41;97300.00;;;28.60
18704;BMP180;9481;48.796;9.210;2022-07-06T09:47:10;97304.00;;;28.70
18704;BMP180;9481;48.796;9.210;2022-07-06T09:49:37;97305.00;;;28.70
18704;BMP180;9481;48.796;9.210;2022-07-06T09:52:10;97304.00;;;28.80
18704;BMP180;9481;48.796;9.210;2022-07-06T09:54:37;97298.00;;;28.80
18704;BMP180;9481;48.796;9.210;2022-07-06T09:57:05;97303.00;;;28.80
18704;BMP180;9481;48.796;9.210;2022-07-06T09:59:33;97301.00;;;28.80
18704;BMP180;9481;48.796;9.210;2022-07-06T10:02:03;97306.00;;;28.90
18704;BMP180;9481;48.796;9.210;2022-07-06T10:04:30;97316.00;;;28.90
18704;BMP180;9481;48.796;9.210;2022-07-06T10:06:58;97314.00;;;29.00
18704;BMP180;9481;48.796;9.210;2022-07-06T10:09:27;97306.00;;;29.00
18704;BMP180;9481;48.796;9.210;2022-07-06T10:11:58;97317.00;;;29.20
18704;BMP180;9481;48.796;9.210;2022-07-06T10:14:29;97312.00;;;29.30
18704;BMP180;9481;48.796;9.210;2022-07-06T10:17:03;97317.00;;;29.40
18704;BMP180;9481;48.796;9.210;2022-07-06T10:19:30;97309.00;;;29.50
18704;BMP180;9481;48.796;9.210;2022-07-06T10:21:59;97316.00;;;29.60
18704;BMP180;9481;48.796;9.210;2022-07-06T10:24:28;97320.00;;;29.60
18704;BMP180;9481;48.796;9.210;2022-07-06T10:26:55;97318.00;;;29.60
18704;BMP180;9481;48.796;9.210;2022-07-06T10:29:21;97317.00;;;29.60
18704;BMP180;9481;48.796;9.210;2022-07-06T10:31:48;97315.00;;;29.70
18704;BMP180;9481;48.796;9.210;2022-07-06T10:34:18;97322.00;;;29.70
18704;BMP180;9481;48.796;9.210;2022-07-06T10:36:51;97321.00;;;29.80
18704;BMP180;9481;48.796;9.210;2022-07-06T10:39:36;97318.00;;;29.80
18704;BMP180;9481;48.796;9.210;2022-07-06T10:42:48;97312.00;;;29.80
18704;BMP180;9481;48.796;9.210;2022-07-06T10:50:51;97314.00;;;29.70
18704;BMP180;9481;48.796;9.210;2022-07-06T10:53:30;97310.00;;;29.80
18704;BMP180;9481;48.796;9.210;2022-07-06T10:55:58;97316.00;;;29.90
18704;BMP180;9481;48.796;9.210;2022-07-06T10:58:51;97317.00;;;29.90
18704;BMP180;9481;48.796;9.210;2022-07-06T11:01:20;97319.00;;;30.00
18704;BMP180;9481;48.796;9.210;2022-07-06T11:04:07;97313.00;;;30.10
18704;BMP180;9481;48.796;9.210;2022-07-06T11:06:39;97316.00;;;30.20
18704;BMP180;9481;48.796;9.210;2022-07-06T11:09:09;97316.00;;;30.30
18704;BMP180;9481;48.796;9.210;2022-07-06T11:14:16;97305.00;;;30.40
18704;BMP180;9481;48.796;9.210;2022-07-06T11:19:19;97301.00;;;30.60
18704;BMP180;9481;48.796;9.210;2022-07-06T11:21:48;97303.00;;;30.60
18704;BMP180;9481;48.796;9.210;2022-07-06T11:24:19;97305.00;;;30.50
18704;BMP180;9481;48.796;9.210;2022-07-06T11:26:48;97293.00;;;30.50
18704;BMP180;9481;48.796;9.210;2022-07-06T11:29:16;97308.00;;;30.60
18704;BMP180;9481;48.796;9.210;2022-07-06T11:31:45;97298.00;;;30.60
18704;BMP180;9481;48.796;9.210;2022-07-06T11:34:18;97290.00;;;30.70
18704;BMP180;9481;48.796;9.210;2022-07-06T11:36:44;97293.00;;;30.80
18704;BMP180;9481;48.796;9.210;2022-07-06T11:39:10;97293.00;;;30.90
18704;BMP180;9481;48.796;9.210;2022-07-06T11:41:36;97297.00;;;30.90
18704;BMP180;9481;48.796;9.210;2022-07-06T11:44:03;97288.00;;;30.90
18704;BMP180;9481;48.796;9.210;2022-07-06T11:46:33;97288.00;;;30.80
18704;BMP180;9481;48.796;9.210;2022-07-06T11:49:05;97286.00;;;30.70
18704;BMP180;9481;48.796;9.210;2022-07-06T11:51:36;97288.00;;;30.60
18704;BMP180;9481;48.796;9.210;2022-07-06T11:54:15;97291.00;;;30.50
18704;BMP180;9481;48.796;9.210;2022-07-06T11:56:57;97285.00;;;30.50
18704;BMP180;9481;48.796;9.210;2022-07-06T11:59:33;97290.00;;;30.60
18704;BMP180;9481;48.796;9.210;2022-07-06T12:02:08;97284.00;;;30.60
18704;BMP180;9481;48.796;9.210;2022-07-06T12:04:38;97281.00;;;30.80
18704;BMP180;9481;48.796;9.210;2022-07-06T12:07:07;97284.00;;;30.90
18704;BMP180;9481;48.796;9.210;2022-07-06T12:09:37;97283.00;;;30.90
18704;BMP180;9481;48.796;9.210;2022-07-06T12:12:05;97273.00;;;31.00
18704;BMP180;9481;48.796;9.210;2022-07-06T12:14:35;97272.00;;;31.00
18704;BMP180;9481;48.796;9.210;2022-07-06T12:17:09;97277.00;;;31.00
18704;BMP180;9481;48.796;9.210;2022-07-06T12:19:36;97266.00;;;31.00
18704;BMP180;9481;48.796;9.210;2022-07-06T12:22:03;97272.00;;;30.90
18704;BMP180;9481;48.796;9.210;2022-07-06T12:24:32;97267.00;;;30.80
18704;BMP180;9481;48.796;9.210;2022-07-06T12:27:09;97267.00;;;30.80
18704;BMP180;9481;48.796;9.210;2022-07-06T12:29:35;97277.00;;;30.90
18704;BMP180;9481;48.796;9.210;2022-07-06T12:32:01;97269.00;;;30.90
18704;BMP180;9481;48.796;9.210;2022-07-06T12:34:29;97273.00;;;31.00
18704;BMP180;9481;48.796;9.210;2022-07-06T12:37:07;97270.00;;;31.00
18704;BMP180;9481;48.796;9.210;2022-07-06T12:39:46;97264.00;;;31.00
18704;BMP180;9481;48.796;9.210;2022-07-06T12:42:17;97265.00;;;30.90
18704;BMP180;9481;48.796;9.210;2022-07-06T12:44:49;97265.00;;;30.80
18704;BMP180;9481;48.796;9.210;2022-07-06T12:47:24;97262.00;;;30.80
18704;BMP180;9481;48.796;9.210;2022-07-06T12:50:06;97267.00;;;30.70
18704;BMP180;9481;48.796;9.210;2022-07-06T12:52:32;97262.00;;;30.80
18704;BMP180;9481;48.796;9.210;2022-07-06T12:55:00;97275.00;;;30.90
18704;BMP180;9481;48.796;9.210;2022-07-06T12:57:26;97275.00;;;30.90
18704;BMP180;9481;48.796;9.210;2022-07-06T13:02:29;97267.00;;;30.80
18704;BMP180;9481;48.796;9.210;2022-07-06T13:05:04;97266.00;;;30.70
18704;BMP180;9481;48.796;9.210;2022-07-06T13:07:33;97271.00;;;30.80
18704;BMP180;9481;48.796;9.210;2022-07-06T13:10:04;97269.00;;;30.70
18704;BMP180;9481;48.796;9.210;2022-07-06T13:12:30;97274.00;;;30.70
18704;BMP180;9481;48.796;9.210;2022-07-06T13:14:56;97259.00;;;30.50
18704;BMP180;9481;48.796;9.210;2022-07-06T13:17:22;97267.00;;;30.40
18704;BMP180;9481;48.796;9.210;2022-07-06T13:19:48;97260.00;;;30.40
18704;BMP180;9481;48.796;9.210;2022-07-06T13:22:14;97268.00;;;30.40
18704;BMP180;9481;48.796;9.210;2022-07-06T13:24:41;97266.00;;;30.40
18704;BMP180;9481;48.796;9.210;2022-07-06T13:27:08;97262.00;;;30.40
18704;BMP180;9481;48.796;9.210;2022-07-06T13:29:35;97267.00;;;30.30
18704;BMP180;9481;48.796;9.210;2022-07-06T13:32:01;97266.00;;;30.30
18704;BMP180;9481;48.796;9.210;2022-07-06T13:34:27;97266.00;;;30.30
18704;BMP180;9481;48.796;9.210;2022-07-06T13:36:52;97268.00;;;30.20
18704;BMP180;9481;48.796;9.210;2022-07-06T13:39:18;97261.00;;;30.10
18704;BMP180;9481;48.796;9.210;2022-07-06T13:41:45;97256.00;;;30.10
18704;BMP180;9481;48.796;9.210;2022-07-06T13:44:11;97256.00;;;30.10
18704;BMP180;9481;48.796;9.210;2022-07-06T13:46:38;97259.00;;;30.20
18704;BMP180;9481;48.796;9.210;2022-07-06T13:49:08;97256.00;;;30.20
18704;BMP180;9481;48.796;9.210;2022-07-06T13:51:34;97246.00;;;30.10
18704;BMP180;9481;48.796;9.210;2022-07-06T13:54:01;97245.00;;;30.10
18704;BMP180;9481;48.796;9.210;2022-07-06T13:56:27;97241.00;;;30.20
18704;BMP180;9481;48.796;9.210;2022-07-06T13:58:54;97231.00;;;30.20
18704;BMP180;9481;48.796;9.210;2022-07-06T14:01:20;97228.00;;;30.20
18704;BMP180;9481;48.796;9.210;2022-07-06T14:03:46;97224.00;;;30.20
18704;BMP180;9481;48.796;9.210;2022-07-06T14:06:13;97226.00;;;30.20
18704;BMP180;9481;48.796;9.210;2022-07-06T14:08:40;97223.00;;;30.20
18704;BMP180;9481;48.796;9.210;2022-07-06T14:11:07;97227.00;;;30.20
18704;BMP180;9481;48.796;9.210;2022-07-06T14:13:35;97233.00;;;30.20
18704;BMP180;9481;48.796;9.210;2022-07-06T14:16:03;97227.00;;;30.20
18704;BMP180;9481;48.796;9.210;2022-07-06T14:18:30;97221.00;;;30.20
18704;BMP180;9481;48.796;9.210;2022-07-06T14:20:56;97212.00;;;30.20
18704;BMP180;9481;48.796;9.210;2022-07-06T14:23:23;97227.00;;;30.10
18704;BMP180;9481;48.796;9.210;2022-07-06T14:25:50;97225.00;;;30.10
18704;BMP180;9481;48.796;9.210;2022-07-06T14:28:17;97216.00;;;30.20
18704;BMP180;9481;48.796;9.210;2022-07-06T14:30:44;97203.00;;;30.20
18704;BMP180;9481;48.796;9.210;2022-07-06T14:33:12;97214.00;;;30.20
18704;BMP180;9481;48.796;9.210;2022-07-06T14:35:42;97217.00;;;30.10
18704;BMP180;9481;48.796;9.210;2022-07-06T14:38:08;97214.00;;;30.10